sensor_id;sensor_type;location;lat;lon;timestamp;temperature;humidity
67759;SHT31;54562;47.620;18.786;2023-02-28T00:00:09;0.02;64.12
67759;SHT31;54562;47.620;18.786;2023-02-28T00:03:19;0.00;63.77
67759;SHT31;54562;47.620;18.786;2023-02-28T00:06:27;0.00;63.78
67759;SHT31;54562;47.620;18.786;2023-02-28T00:09:35;-0.01;63.58
67759;SHT31;54562;47.620;18.786;2023-02-28T00:12:52;-0.01;63.42
67759;SHT31;54562;47.620;18.786;2023-02-28T00:16:05;-0.01;63.41
67759;SHT31;54562;47.620;18.786;2023-02-28T00:19:16;-0.02;63.30
67759;SHT31;54562;47.620;18.786;2023-02-28T00:22:25;-0.03;63.19
67759;SHT31;54562;47.620;18.786;2023-02-28T00:25:33;-0.05;63.08
67759;SHT31;54562;47.620;18.786;2023-02-28T00:28:41;-0.04;62.92
67759;SHT31;54562;47.620;18.786;2023-02-28T00:31:50;-0.04;62.76
67759;SHT31;54562;47.620;18.786;2023-02-28T00:34:58;-0.02;62.79
67759;SHT31;54562;47.620;18.786;2023-02-28T00:38:06;-0.01;62.67
67759;SHT31;54562;47.620;18.786;2023-02-28T00:41:14;0.01;62.56
67759;SHT31;54562;47.620;18.786;2023-02-28T00:44:22;0.04;62.38
67759;SHT31;54562;47.620;18.786;2023-02-28T00:47:30;0.06;62.29
67759;SHT31;54562;47.620;18.786;2023-02-28T00:50:39;0.10;62.16
67759;SHT31;54562;47.620;18.786;2023-02-28T00:53:47;0.13;62.12
67759;SHT31;54562;47.620;18.786;2023-02-28T00:56:55;0.15;61.96
67759;SHT31;54562;47.620;18.786;2023-02-28T01:00:04;0.18;61.96
67759;SHT31;54562;47.620;18.786;2023-02-28T01:03:16;0.20;61.90
67759;SHT31;54562;47.620;18.786;2023-02-28T01:06:25;0.22;61.67
67759;SHT31;54562;47.620;18.786;2023-02-28T01:09:32;0.25;61.46
67759;SHT31;54562;47.620;18.786;2023-02-28T01:12:41;0.28;61.28
67759;SHT31;54562;47.620;18.786;2023-02-28T01:15:51;0.31;61.33
67759;SHT31;54562;47.620;18.786;2023-02-28T01:19:01;0.33;61.22
67759;SHT31;54562;47.620;18.786;2023-02-28T01:22:09;0.35;61.17
67759;SHT31;54562;47.620;18.786;2023-02-28T01:25:17;0.38;61.20
67759;SHT31;54562;47.620;18.786;2023-02-28T01:28:25;0.40;61.21
67759;SHT31;54562;47.620;18.786;2023-02-28T01:31:33;0.42;60.94
67759;SHT31;54562;47.620;18.786;2023-02-28T01:34:42;0.43;60.98
67759;SHT31;54562;47.620;18.786;2023-02-28T01:37:50;0.45;60.95
67759;SHT31;54562;47.620;18.786;2023-02-28T01:41:07;0.45;61.00
67759;SHT31;54562;47.620;18.786;2023-02-28T01:48:10;0.44;60.75
67759;SHT31;54562;47.620;18.786;2023-02-28T01:51:19;0.45;60.71
67759;SHT31;54562;47.620;18.786;2023-02-28T01:54:33;0.45;60.66
67759;SHT31;54562;47.620;18.786;2023-02-28T01:57:43;0.44;60.47
67759;SHT31;54562;47.620;18.786;2023-02-28T02:00:56;0.44;60.40
67759;SHT31;54562;47.620;18.786;2023-02-28T02:04:05;0.43;60.42
67759;SHT31;54562;47.620;18.786;2023-02-28T02:07:14;0.43;60.47
67759;SHT31;54562;47.620;18.786;2023-02-28T02:10:25;0.43;60.43
67759;SHT31;54562;47.620;18.786;2023-02-28T02:13:51;0.41;60.50
67759;SHT31;54562;47.620;18.786;2023-02-28T02:17:18;0.39;60.38
67759;SHT31;54562;47.620;18.786;2023-02-28T02:21:03;0.38;60.63
67759;SHT31;54562;47.620;18.786;2023-02-28T02:24:37;0.37;60.41
67759;SHT31;54562;47.620;18.786;2023-02-28T02:36:26;0.35;60.38
67759;SHT31;54562;47.620;18.786;2023-02-28T02:39:40;0.35;60.47
67759;SHT31;54562;47.620;18.786;2023-02-28T02:42:59;0.37;60.31
67759;SHT31;54562;47.620;18.786;2023-02-28T02:46:13;0.36;60.20
67759;SHT31;54562;47.620;18.786;2023-02-28T02:49:32;0.37;60.07
67759;SHT31;54562;47.620;18.786;2023-02-28T02:52:44;0.37;59.97
67759;SHT31;54562;47.620;18.786;2023-02-28T02:55:57;0.36;60.12
67759;SHT31;54562;47.620;18.786;2023-02-28T02:59:09;0.37;60.22
67759;SHT31;54562;47.620;18.786;2023-02-28T03:02:24;0.36;60.22
67759;SHT31;54562;47.620;18.786;2023-02-28T03:05:39;0.35;60.33
67759;SHT31;54562;47.620;18.786;2023-02-28T03:08:53;0.36;60.38
67759;SHT31;54562;47.620;18.786;2023-02-28T03:12:01;0.35;60.33
67759;SHT31;54562;47.620;18.786;2023-02-28T03:15:15;0.34;60.58
67759;SHT31;54562;47.620;18.786;2023-02-28T03:18:32;0.34;60.55
67759;SHT31;54562;47.620;18.786;2023-02-28T03:21:54;0.34;60.40
67759;SHT31;54562;47.620;18.786;2023-02-28T03:25:20;0.34;60.38
67759;SHT31;54562;47.620;18.786;2023-02-28T03:28:36;0.32;60.38
67759;SHT31;54562;47.620;18.786;2023-02-28T03:31:54;0.33;60.46
67759;SHT31;54562;47.620;18.786;2023-02-28T03:35:09;0.32;60.28
67759;SHT31;54562;47.620;18.786;2023-02-28T03:38:26;0.32;60.32
67759;SHT31;54562;47.620;18.786;2023-02-28T03:41:40;0.33;60.33
67759;SHT31;54562;47.620;18.786;2023-02-28T03:44:56;0.31;60.30
67759;SHT31;54562;47.620;18.786;2023-02-28T03:48:11;0.31;60.42
67759;SHT31;54562;47.620;18.786;2023-02-28T03:51:26;0.30;60.56
67759;SHT31;54562;47.620;18.786;2023-02-28T03:54:37;0.28;60.34
67759;SHT31;54562;47.620;18.786;2023-02-28T03:57:54;0.28;60.38
67759;SHT31;54562;47.620;18.786;2023-02-28T04:01:10;0.26;60.40
67759;SHT31;54562;47.620;18.786;2023-02-28T04:04:24;0.25;60.47
67759;SHT31;54562;47.620;18.786;2023-02-28T04:07:32;0.25;60.45
67759;SHT31;54562;47.620;18.786;2023-02-28T04:10:40;0.25;60.38
67759;SHT31;54562;47.620;18.786;2023-02-28T04:13:54;0.24;60.44
67759;SHT31;54562;47.620;18.786;2023-02-28T04:17:02;0.24;60.35
67759;SHT31;54562;47.620;18.786;2023-02-28T04:20:11;0.25;60.34
67759;SHT31;54562;47.620;18.786;2023-02-28T04:23:19;0.26;60.29
67759;SHT31;54562;47.620;18.786;2023-02-28T04:26:29;0.27;60.40
67759;SHT31;54562;47.620;18.786;2023-02-28T04:29:37;0.26;60.25
67759;SHT31;54562;47.620;18.786;2023-02-28T04:32:49;0.26;60.27
67759;SHT31;54562;47.620;18.786;2023-02-28T04:36:01;0.27;60.38
67759;SHT31;54562;47.620;18.786;2023-02-28T04:39:12;0.28;60.23
67759;SHT31;54562;47.620;18.786;2023-02-28T04:42:21;0.27;60.51
67759;SHT31;54562;47.620;18.786;2023-02-28T04:45:29;0.29;60.51
67759;SHT31;54562;47.620;18.786;2023-02-28T04:48:38;0.29;60.33
67759;SHT31;54562;47.620;18.786;2023-02-28T04:51:47;0.30;60.38
67759;SHT31;54562;47.620;18.786;2023-02-28T04:54:55;0.30;60.38
67759;SHT31;54562;47.620;18.786;2023-02-28T04:58:03;0.31;60.52
67759;SHT31;54562;47.620;18.786;2023-02-28T05:01:19;0.32;60.56
67759;SHT31;54562;47.620;18.786;2023-02-28T05:04:30;0.32;60.42
67759;SHT31;54562;47.620;18.786;2023-02-28T05:07:38;0.32;60.68
67759;SHT31;54562;47.620;18.786;2023-02-28T05:10:46;0.32;60.75
67759;SHT31;54562;47.620;18.786;2023-02-28T05:13:54;0.32;60.69
67759;SHT31;54562;47.620;18.786;2023-02-28T05:17:02;0.31;60.64
67759;SHT31;54562;47.620;18.786;2023-02-28T05:20:11;0.29;60.75
67759;SHT31;54562;47.620;18.786;2023-02-28T05:23:20;0.31;61.08
67759;SHT31;54562;47.620;18.786;2023-02-28T05:26:29;0.33;61.17
67759;SHT31;54562;47.620;18.786;2023-02-28T05:29:41;0.35;61.05
67759;SHT31;54562;47.620;18.786;2023-02-28T05:32:51;0.36;61.00
67759;SHT31;54562;47.620;18.786;2023-02-28T05:35:59;0.35;60.99
67759;SHT31;54562;47.620;18.786;2023-02-28T05:39:08;0.36;60.94
67759;SHT31;54562;47.620;18.786;2023-02-28T05:42:16;0.37;61.10
67759;SHT31;54562;47.620;18.786;2023-02-28T05:45:24;0.38;61.24
67759;SHT31;54562;47.620;18.786;2023-02-28T05:48:32;0.42;61.32
67759;SHT31;54562;47.620;18.786;2023-02-28T05:51:41;0.43;61.40
67759;SHT31;54562;47.620;18.786;2023-02-28T05:54:49;0.47;62.27
67759;SHT31;54562;47.620;18.786;2023-02-28T05:57:58;0.50;62.46
67759;SHT31;54562;47.620;18.786;2023-02-28T06:04:35;0.56;61.87
67759;SHT31;54562;47.620;18.786;2023-02-28T06:07:44;0.60;62.01
67759;SHT31;54562;47.620;18.786;2023-02-28T06:10:52;0.64;62.36
67759;SHT31;54562;47.620;18.786;2023-02-28T06:14:01;0.69;62.33
67759;SHT31;54562;47.620;18.786;2023-02-28T06:17:10;0.72;62.10
67759;SHT31;54562;47.620;18.786;2023-02-28T06:20:18;0.76;61.64
67759;SHT31;54562;47.620;18.786;2023-02-28T06:23:26;0.82;61.56
67759;SHT31;54562;47.620;18.786;2023-02-28T06:26:34;0.86;62.08
67759;SHT31;54562;47.620;18.786;2023-02-28T06:29:42;0.91;61.86
67759;SHT31;54562;47.620;18.786;2023-02-28T06:32:50;0.95;61.77
67759;SHT31;54562;47.620;18.786;2023-02-28T06:35:59;0.99;61.60
67759;SHT31;54562;47.620;18.786;2023-02-28T06:39:07;1.02;61.33
67759;SHT31;54562;47.620;18.786;2023-02-28T06:42:15;1.06;61.28
67759;SHT31;54562;47.620;18.786;2023-02-28T06:45:24;1.11;61.04
67759;SHT31;54562;47.620;18.786;2023-02-28T06:48:32;1.14;61.06
67759;SHT31;54562;47.620;18.786;2023-02-28T06:51:41;1.17;61.55
67759;SHT31;54562;47.620;18.786;2023-02-28T06:54:50;1.20;62.07
67759;SHT31;54562;47.620;18.786;2023-02-28T06:58:02;1.21;62.01
67759;SHT31;54562;47.620;18.786;2023-02-28T07:01:18;1.23;62.12
67759;SHT31;54562;47.620;18.786;2023-02-28T07:04:27;1.25;61.83
67759;SHT31;54562;47.620;18.786;2023-02-28T07:07:36;1.30;61.63
67759;SHT31;54562;47.620;18.786;2023-02-28T07:10:47;1.36;61.53
67759;SHT31;54562;47.620;18.786;2023-02-28T07:13:58;1.43;61.74
67759;SHT31;54562;47.620;18.786;2023-02-28T07:17:07;1.51;61.40
67759;SHT31;54562;47.620;18.786;2023-02-28T07:20:16;1.60;61.32
67759;SHT31;54562;47.620;18.786;2023-02-28T07:23:24;1.73;61.30
67759;SHT31;54562;47.620;18.786;2023-02-28T07:26:31;1.86;60.88
67759;SHT31;54562;47.620;18.786;2023-02-28T07:29:39;1.98;61.05
67759;SHT31;54562;47.620;18.786;2023-02-28T07:32:47;2.06;60.80
67759;SHT31;54562;47.620;18.786;2023-02-28T07:36:01;2.13;60.46
67759;SHT31;54562;47.620;18.786;2023-02-28T07:39:11;2.19;60.34
67759;SHT31;54562;47.620;18.786;2023-02-28T07:42:19;2.21;60.13
67759;SHT31;54562;47.620;18.786;2023-02-28T07:45:28;2.24;60.13
67759;SHT31;54562;47.620;18.786;2023-02-28T07:48:38;2.30;60.32
67759;SHT31;54562;47.620;18.786;2023-02-28T07:51:46;2.36;60.34
67759;SHT31;54562;47.620;18.786;2023-02-28T07:54:56;2.40;60.17
67759;SHT31;54562;47.620;18.786;2023-02-28T07:58:04;2.49;60.26
67759;SHT31;54562;47.620;18.786;2023-02-28T08:01:12;2.58;59.81
67759;SHT31;54562;47.620;18.786;2023-02-28T08:04:22;2.66;59.63
67759;SHT31;54562;47.620;18.786;2023-02-28T08:07:28;2.70;59.54
67759;SHT31;54562;47.620;18.786;2023-02-28T08:10:36;2.77;59.56
67759;SHT31;54562;47.620;18.786;2023-02-28T08:13:45;2.92;59.22
67759;SHT31;54562;47.620;18.786;2023-02-28T08:16:54;3.00;58.65
67759;SHT31;54562;47.620;18.786;2023-02-28T08:20:02;3.07;58.42
67759;SHT31;54562;47.620;18.786;2023-02-28T08:23:12;3.13;58.14
67759;SHT31;54562;47.620;18.786;2023-02-28T08:26:20;3.13;57.66
67759;SHT31;54562;47.620;18.786;2023-02-28T08:29:28;3.17;57.54
67759;SHT31;54562;47.620;18.786;2023-02-28T08:32:36;3.31;58.03
67759;SHT31;54562;47.620;18.786;2023-02-28T08:35:45;3.39;57.60
67759;SHT31;54562;47.620;18.786;2023-02-28T08:38:52;3.56;57.80
67759;SHT31;54562;47.620;18.786;2023-02-28T08:42:01;3.72;57.48
67759;SHT31;54562;47.620;18.786;2023-02-28T08:45:10;3.88;57.79
67759;SHT31;54562;47.620;18.786;2023-02-28T08:48:19;4.02;57.43
67759;SHT31;54562;47.620;18.786;2023-02-28T08:51:28;4.11;56.82
67759;SHT31;54562;47.620;18.786;2023-02-28T08:54:36;4.20;56.20
67759;SHT31;54562;47.620;18.786;2023-02-28T08:57:44;4.31;56.50
67759;SHT31;54562;47.620;18.786;2023-02-28T09:00:52;4.47;56.78
67759;SHT31;54562;47.620;18.786;2023-02-28T09:04:00;4.66;56.56
67759;SHT31;54562;47.620;18.786;2023-02-28T09:07:11;4.82;56.50
67759;SHT31;54562;47.620;18.786;2023-02-28T09:10:19;4.95;55.70
67759;SHT31;54562;47.620;18.786;2023-02-28T09:13:27;5.04;55.15
67759;SHT31;54562;47.620;18.786;2023-02-28T09:16:36;5.15;55.04
67759;SHT31;54562;47.620;18.786;2023-02-28T09:19:46;5.24;54.88
67759;SHT31;54562;47.620;18.786;2023-02-28T09:22:55;5.36;54.72
67759;SHT31;54562;47.620;18.786;2023-02-28T09:26:03;5.49;55.02
67759;SHT31;54562;47.620;18.786;2023-02-28T09:29:12;5.65;55.30
67759;SHT31;54562;47.620;18.786;2023-02-28T09:32:20;5.86;54.98
67759;SHT31;54562;47.620;18.786;2023-02-28T09:35:28;6.02;53.83
67759;SHT31;54562;47.620;18.786;2023-02-28T09:38:36;6.10;53.19
67759;SHT31;54562;47.620;18.786;2023-02-28T09:41:47;6.21;53.49
67759;SHT31;54562;47.620;18.786;2023-02-28T09:44:58;6.35;52.54
67759;SHT31;54562;47.620;18.786;2023-02-28T09:48:17;6.51;53.26
67759;SHT31;54562;47.620;18.786;2023-02-28T09:51:34;6.67;52.78
67759;SHT31;54562;47.620;18.786;2023-02-28T09:54:54;6.78;51.61
67759;SHT31;54562;47.620;18.786;2023-02-28T09:58:05;6.93;52.26
67759;SHT31;54562;47.620;18.786;2023-02-28T10:01:25;7.05;52.03
67759;SHT31;54562;47.620;18.786;2023-02-28T10:04:44;7.16;51.61
67759;SHT31;54562;47.620;18.786;2023-02-28T10:08:02;7.27;52.11
67759;SHT31;54562;47.620;18.786;2023-02-28T10:11:19;7.43;52.22
67759;SHT31;54562;47.620;18.786;2023-02-28T10:14:27;7.54;51.17
67759;SHT31;54562;47.620;18.786;2023-02-28T10:17:39;7.63;50.75
67759;SHT31;54562;47.620;18.786;2023-02-28T10:21:15;7.77;50.53
67759;SHT31;54562;47.620;18.786;2023-02-28T10:24:30;7.83;49.73
67759;SHT31;54562;47.620;18.786;2023-02-28T10:27:44;7.77;49.08
67759;SHT31;54562;47.620;18.786;2023-02-28T10:30:55;7.70;49.29
67759;SHT31;54562;47.620;18.786;2023-02-28T10:34:04;7.75;49.96
67759;SHT31;54562;47.620;18.786;2023-02-28T10:37:16;7.95;50.67
67759;SHT31;54562;47.620;18.786;2023-02-28T10:40:27;8.17;50.40
67759;SHT31;54562;47.620;18.786;2023-02-28T10:43:40;8.33;49.13
67759;SHT31;54562;47.620;18.786;2023-02-28T10:46:49;8.41;49.94
67759;SHT31;54562;47.620;18.786;2023-02-28T10:49:59;8.57;49.18
67759;SHT31;54562;47.620;18.786;2023-02-28T10:53:13;8.69;48.48
67759;SHT31;54562;47.620;18.786;2023-02-28T10:57:20;8.82;48.90
67759;SHT31;54562;47.620;18.786;2023-02-28T11:00:33;8.95;48.57
67759;SHT31;54562;47.620;18.786;2023-02-28T11:03:43;9.05;47.53
67759;SHT31;54562;47.620;18.786;2023-02-28T11:06:57;9.02;47.18
67759;SHT31;54562;47.620;18.786;2023-02-28T11:10:16;9.05;46.68
67759;SHT31;54562;47.620;18.786;2023-02-28T11:13:31;8.98;46.10
67759;SHT31;54562;47.620;18.786;2023-02-28T11:16:42;8.91;46.03
67759;SHT31;54562;47.620;18.786;2023-02-28T11:19:54;8.85;46.00
67759;SHT31;54562;47.620;18.786;2023-02-28T11:23:10;8.83;46.52
67759;SHT31;54562;47.620;18.786;2023-02-28T11:26:38;8.89;46.39
67759;SHT31;54562;47.620;18.786;2023-02-28T11:29:49;9.03;46.63
67759;SHT31;54562;47.620;18.786;2023-02-28T11:32:59;9.29;46.78
67759;SHT31;54562;47.620;18.786;2023-02-28T11:36:24;9.52;46.28
67759;SHT31;54562;47.620;18.786;2023-02-28T11:39:36;9.47;45.15
67759;SHT31;54562;47.620;18.786;2023-02-28T11:42:47;9.30;45.37
67759;SHT31;54562;47.620;18.786;2023-02-28T11:46:13;9.08;45.44
67759;SHT31;54562;47.620;18.786;2023-02-28T11:49:35;9.13;45.88
67759;SHT31;54562;47.620;18.786;2023-02-28T11:52:55;9.33;45.53
67759;SHT31;54562;47.620;18.786;2023-02-28T11:56:10;9.48;45.49
67759;SHT31;54562;47.620;18.786;2023-02-28T11:59:34;9.70;45.53
67759;SHT31;54562;47.620;18.786;2023-02-28T12:02:59;9.91;45.25
67759;SHT31;54562;47.620;18.786;2023-02-28T12:06:22;9.95;45.33
67759;SHT31;54562;47.620;18.786;2023-02-28T12:09:44;9.96;45.28
67759;SHT31;54562;47.620;18.786;2023-02-28T12:13:08;10.13;45.05
67759;SHT31;54562;47.620;18.786;2023-02-28T12:16:34;10.29;45.52
67759;SHT31;54562;47.620;18.786;2023-02-28T12:20:02;10.38;44.34
67759;SHT31;54562;47.620;18.786;2023-02-28T12:23:29;10.38;44.62
67759;SHT31;54562;47.620;18.786;2023-02-28T12:26:59;10.45;44.70
67759;SHT31;54562;47.620;18.786;2023-02-28T12:30:15;10.52;44.78
67759;SHT31;54562;47.620;18.786;2023-02-28T12:33:28;10.70;45.01
67759;SHT31;54562;47.620;18.786;2023-02-28T12:36:45;10.68;43.85
67759;SHT31;54562;47.620;18.786;2023-02-28T12:39:59;10.66;44.63
67759;SHT31;54562;47.620;18.786;2023-02-28T12:43:14;10.73;44.76
67759;SHT31;54562;47.620;18.786;2023-02-28T12:46:27;10.78;43.84
67759;SHT31;54562;47.620;18.786;2023-02-28T12:49:43;10.63;42.85
67759;SHT31;54562;47.620;18.786;2023-02-28T12:52:58;10.33;43.09
67759;SHT31;54562;47.620;18.786;2023-02-28T12:56:15;10.24;43.11
67759;SHT31;54562;47.620;18.786;2023-02-28T12:59:32;10.04;43.10
67759;SHT31;54562;47.620;18.786;2023-02-28T13:02:54;9.82;43.67
67759;SHT31;54562;47.620;18.786;2023-02-28T13:06:41;9.75;44.11
67759;SHT31;54562;47.620;18.786;2023-02-28T13:10:10;9.82;43.99
67759;SHT31;54562;47.620;18.786;2023-02-28T13:13:22;9.97;44.39
67759;SHT31;54562;47.620;18.786;2023-02-28T13:20:13;10.63;44.89
67759;SHT31;54562;47.620;18.786;2023-02-28T13:23:56;10.77;43.95
67759;SHT31;54562;47.620;18.786;2023-02-28T13:27:20;10.56;43.36
67759;SHT31;54562;47.620;18.786;2023-02-28T13:34:15;9.73;43.43
67759;SHT31;54562;47.620;18.786;2023-02-28T13:37:35;9.62;44.81
67759;SHT31;54562;47.620;18.786;2023-02-28T13:40:49;9.50;44.33
67759;SHT31;54562;47.620;18.786;2023-02-28T13:44:00;9.41;44.85
67759;SHT31;54562;47.620;18.786;2023-02-28T13:47:19;9.55;45.21
67759;SHT31;54562;47.620;18.786;2023-02-28T13:50:35;9.67;44.96
67759;SHT31;54562;47.620;18.786;2023-02-28T13:53:52;9.81;44.67
67759;SHT31;54562;47.620;18.786;2023-02-28T13:57:20;9.81;44.47
67759;SHT31;54562;47.620;18.786;2023-02-28T14:00:48;9.80;44.39
67759;SHT31;54562;47.620;18.786;2023-02-28T14:04:25;9.61;43.98
67759;SHT31;54562;47.620;18.786;2023-02-28T14:08:10;9.57;44.29
67759;SHT31;54562;47.620;18.786;2023-02-28T14:11:25;9.71;44.53
67759;SHT31;54562;47.620;18.786;2023-02-28T14:14:55;9.78;44.33
67759;SHT31;54562;47.620;18.786;2023-02-28T14:18:05;9.70;43.91
67759;SHT31;54562;47.620;18.786;2023-02-28T14:21:29;9.49;44.17
67759;SHT31;54562;47.620;18.786;2023-02-28T14:24:46;9.40;44.36
67759;SHT31;54562;47.620;18.786;2023-02-28T14:28:17;9.36;44.76
67759;SHT31;54562;47.620;18.786;2023-02-28T14:31:42;9.31;44.86
67759;SHT31;54562;47.620;18.786;2023-02-28T14:35:02;9.20;44.81
67759;SHT31;54562;47.620;18.786;2023-02-28T14:38:27;9.08;44.76
67759;SHT31;54562;47.620;18.786;2023-02-28T14:41:41;8.95;44.83
67759;SHT31;54562;47.620;18.786;2023-02-28T14:44:54;8.84;45.10
67759;SHT31;54562;47.620;18.786;2023-02-28T14:48:04;8.73;45.12
67759;SHT31;54562;47.620;18.786;2023-02-28T14:51:19;8.57;45.27
67759;SHT31;54562;47.620;18.786;2023-02-28T14:54:29;8.37;46.05
67759;SHT31;54562;47.620;18.786;2023-02-28T14:57:41;8.38;46.50
67759;SHT31;54562;47.620;18.786;2023-02-28T15:00:58;8.35;46.32
67759;SHT31;54562;47.620;18.786;2023-02-28T15:04:13;8.27;46.33
67759;SHT31;54562;47.620;18.786;2023-02-28T15:07:30;8.10;46.32
67759;SHT31;54562;47.620;18.786;2023-02-28T15:10:38;8.04;46.55
67759;SHT31;54562;47.620;18.786;2023-02-28T15:13:49;7.94;46.81
67759;SHT31;54562;47.620;18.786;2023-02-28T15:17:00;7.80;46.97
67759;SHT31;54562;47.620;18.786;2023-02-28T15:20:19;7.67;47.04
67759;SHT31;54562;47.620;18.786;2023-02-28T15:23:26;7.56;47.58
67759;SHT31;54562;47.620;18.786;2023-02-28T15:26:36;7.51;48.12
67759;SHT31;54562;47.620;18.786;2023-02-28T15:29:59;7.43;48.11
67759;SHT31;54562;47.620;18.786;2023-02-28T15:33:19;7.32;48.23
67759;SHT31;54562;47.620;18.786;2023-02-28T15:36:30;7.22;48.63
67759;SHT31;54562;47.620;18.786;2023-02-28T15:39:42;7.18;49.01
67759;SHT31;54562;47.620;18.786;2023-02-28T15:43:04;7.07;48.89
67759;SHT31;54562;47.620;18.786;2023-02-28T15:46:18;6.88;48.83
67759;SHT31;54562;47.620;18.786;2023-02-28T15:49:27;6.70;49.35
67759;SHT31;54562;47.620;18.786;2023-02-28T15:52:47;6.51;49.64
67759;SHT31;54562;47.620;18.786;2023-02-28T15:55:57;6.42;50.12
67759;SHT31;54562;47.620;18.786;2023-02-28T15:59:12;6.30;50.34
67759;SHT31;54562;47.620;18.786;2023-02-28T16:02:29;6.18;50.55
67759;SHT31;54562;47.620;18.786;2023-02-28T16:05:39;6.06;50.65
67759;SHT31;54562;47.620;18.786;2023-02-28T16:08:47;5.94;51.11
67759;SHT31;54562;47.620;18.786;2023-02-28T16:11:58;5.82;51.39
67759;SHT31;54562;47.620;18.786;2023-02-28T16:15:16;5.71;51.67
67759;SHT31;54562;47.620;18.786;2023-02-28T16:18:28;5.61;52.07
67759;SHT31;54562;47.620;18.786;2023-02-28T16:21:35;5.54;52.34
67759;SHT31;54562;47.620;18.786;2023-02-28T16:24:44;5.47;52.69
67759;SHT31;54562;47.620;18.786;2023-02-28T16:27:54;5.39;52.86
67759;SHT31;54562;47.620;18.786;2023-02-28T16:31:04;5.33;53.09
67759;SHT31;54562;47.620;18.786;2023-02-28T16:34:19;5.28;53.32
67759;SHT31;54562;47.620;18.786;2023-02-28T16:37:29;5.24;53.53
67759;SHT31;54562;47.620;18.786;2023-02-28T16:40:37;5.21;53.67
67759;SHT31;54562;47.620;18.786;2023-02-28T16:43:46;5.17;53.83
67759;SHT31;54562;47.620;18.786;2023-02-28T16:47:02;5.14;54.08
67759;SHT31;54562;47.620;18.786;2023-02-28T16:53:24;5.10;54.35
67759;SHT31;54562;47.620;18.786;2023-02-28T16:56:32;5.06;54.51
67759;SHT31;54562;47.620;18.786;2023-02-28T16:59:45;5.04;54.68
67759;SHT31;54562;47.620;18.786;2023-02-28T17:02:54;5.02;54.82
67759;SHT31;54562;47.620;18.786;2023-02-28T17:06:03;5.00;54.88
67759;SHT31;54562;47.620;18.786;2023-02-28T17:09:19;4.99;55.01
67759;SHT31;54562;47.620;18.786;2023-02-28T17:12:46;4.98;55.17
67759;SHT31;54562;47.620;18.786;2023-02-28T17:16:05;4.97;55.33
67759;SHT31;54562;47.620;18.786;2023-02-28T17:19:22;4.95;55.35
67759;SHT31;54562;47.620;18.786;2023-02-28T17:22:31;4.93;55.59
67759;SHT31;54562;47.620;18.786;2023-02-28T17:25:39;4.92;55.58
67759;SHT31;54562;47.620;18.786;2023-02-28T17:29:00;4.92;55.78
67759;SHT31;54562;47.620;18.786;2023-02-28T17:32:10;4.91;55.72
67759;SHT31;54562;47.620;18.786;2023-02-28T17:35:20;4.92;55.87
67759;SHT31;54562;47.620;18.786;2023-02-28T17:38:30;4.91;55.94
67759;SHT31;54562;47.620;18.786;2023-02-28T17:41:38;4.88;56.03
67759;SHT31;54562;47.620;18.786;2023-02-28T17:44:47;4.84;56.24
67759;SHT31;54562;47.620;18.786;2023-02-28T17:47:55;4.83;56.42
67759;SHT31;54562;47.620;18.786;2023-02-28T17:51:04;4.80;56.38
67759;SHT31;54562;47.620;18.786;2023-02-28T17:54:12;4.80;56.68
67759;SHT31;54562;47.620;18.786;2023-02-28T17:57:21;4.78;57.02
67759;SHT31;54562;47.620;18.786;2023-02-28T18:00:29;4.76;57.23
67759;SHT31;54562;47.620;18.786;2023-02-28T18:03:38;4.72;57.43
67759;SHT31;54562;47.620;18.786;2023-02-28T18:06:46;4.69;57.49
67759;SHT31;54562;47.620;18.786;2023-02-28T18:09:55;4.65;57.69
67759;SHT31;54562;47.620;18.786;2023-02-28T18:13:03;4.63;58.01
67759;SHT31;54562;47.620;18.786;2023-02-28T18:16:12;4.59;58.13
67759;SHT31;54562;47.620;18.786;2023-02-28T18:19:21;4.55;58.39
67759;SHT31;54562;47.620;18.786;2023-02-28T18:22:29;4.52;58.42
67759;SHT31;54562;47.620;18.786;2023-02-28T18:25:40;4.48;58.64
67759;SHT31;54562;47.620;18.786;2023-02-28T18:28:48;4.46;58.78
67759;SHT31;54562;47.620;18.786;2023-02-28T18:31:56;4.45;58.92
67759;SHT31;54562;47.620;18.786;2023-02-28T18:35:07;4.44;58.99
67759;SHT31;54562;47.620;18.786;2023-02-28T18:38:16;4.43;59.30
67759;SHT31;54562;47.620;18.786;2023-02-28T18:41:24;4.40;59.34
67759;SHT31;54562;47.620;18.786;2023-02-28T18:44:33;4.39;59.37
67759;SHT31;54562;47.620;18.786;2023-02-28T18:47:42;4.36;59.63
67759;SHT31;54562;47.620;18.786;2023-02-28T18:50:50;4.32;59.84
67759;SHT31;54562;47.620;18.786;2023-02-28T18:53:59;4.29;60.02
67759;SHT31;54562;47.620;18.786;2023-02-28T18:57:07;4.27;60.28
67759;SHT31;54562;47.620;18.786;2023-02-28T19:00:16;4.25;60.41
67759;SHT31;54562;47.620;18.786;2023-02-28T19:03:28;4.23;60.47
67759;SHT31;54562;47.620;18.786;2023-02-28T19:06:37;4.23;60.77
67759;SHT31;54562;47.620;18.786;2023-02-28T19:09:45;4.24;60.94
67759;SHT31;54562;47.620;18.786;2023-02-28T19:12:54;4.22;61.04
67759;SHT31;54562;47.620;18.786;2023-02-28T19:16:03;4.23;61.01
67759;SHT31;54562;47.620;18.786;2023-02-28T19:19:13;4.23;61.08
67759;SHT31;54562;47.620;18.786;2023-02-28T19:22:22;4.24;60.97
67759;SHT31;54562;47.620;18.786;2023-02-28T19:25:30;4.24;61.00
67759;SHT31;54562;47.620;18.786;2023-02-28T19:28:38;4.23;61.11
67759;SHT31;54562;47.620;18.786;2023-02-28T19:31:47;4.22;61.29
67759;SHT31;54562;47.620;18.786;2023-02-28T19:34:55;4.21;61.32
67759;SHT31;54562;47.620;18.786;2023-02-28T19:38:06;4.22;61.54
67759;SHT31;54562;47.620;18.786;2023-02-28T19:41:15;4.22;61.58
67759;SHT31;54562;47.620;18.786;2023-02-28T19:44:24;4.22;61.88
67759;SHT31;54562;47.620;18.786;2023-02-28T19:47:31;4.22;62.09
67759;SHT31;54562;47.620;18.786;2023-02-28T19:50:40;4.23;61.99
67759;SHT31;54562;47.620;18.786;2023-02-28T19:53:48;4.23;61.88
67759;SHT31;54562;47.620;18.786;2023-02-28T19:56:57;4.25;61.72
67759;SHT31;54562;47.620;18.786;2023-02-28T20:00:06;4.26;62.01
67759;SHT31;54562;47.620;18.786;2023-02-28T20:03:17;4.26;62.01
67759;SHT31;54562;47.620;18.786;2023-02-28T20:06:26;4.27;62.13
67759;SHT31;54562;47.620;18.786;2023-02-28T20:09:37;4.30;61.96
67759;SHT31;54562;47.620;18.786;2023-02-28T20:12:46;4.32;62.14
67759;SHT31;54562;47.620;18.786;2023-02-28T20:15:53;4.33;62.16
67759;SHT31;54562;47.620;18.786;2023-02-28T20:19:05;4.33;62.16
67759;SHT31;54562;47.620;18.786;2023-02-28T20:22:13;4.33;62.45
67759;SHT31;54562;47.620;18.786;2023-02-28T20:25:22;4.34;62.42
67759;SHT31;54562;47.620;18.786;2023-02-28T20:28:33;4.34;62.49
67759;SHT31;54562;47.620;18.786;2023-02-28T20:31:41;4.34;62.57
67759;SHT31;54562;47.620;18.786;2023-02-28T20:34:50;4.34;62.49
67759;SHT31;54562;47.620;18.786;2023-02-28T20:37:58;4.35;62.85
67759;SHT31;54562;47.620;18.786;2023-02-28T20:41:06;4.36;63.06